METAR Data
IDs: Format: Raw Decoded Include TAF

Data at: 1219 UTC 26 Feb 2021

EIDW 261200Z 22008KT 180V260 9999 SCT024 10/04 Q1035 NOSIG